sensor_id;sensor_type;location;lat;lon;timestamp;P1;durP1;ratioP1;P2;durP2;ratioP2
7375;SDS011;3728;42.266;24.944;2022-10-15T00:01:32;5.17;;;4.07;;
7375;SDS011;3728;42.266;24.944;2022-10-15T00:04:00;6.57;;;3.77;;
7375;SDS011;3728;42.266;24.944;2022-10-15T00:06:28;7.20;;;4.33;;
7375;SDS011;3728;42.266;24.944;2022-10-15T00:08:55;5.20;;;4.30;;
7375;SDS011;3728;42.266;24.944;2022-10-15T00:11:24;7.97;;;4.20;;
7375;SDS011;3728;42.266;24.944;2022-10-15T00:13:54;5.17;;;3.97;;
7375;SDS011;3728;42.266;24.944;2022-10-15T00:16:25;4.33;;;3.90;;
7375;SDS011;3728;42.266;24.944;2022-10-15T00:18:55;7.67;;;4.13;;
7375;SDS011;3728;42.266;24.944;2022-10-15T00:21:24;7.10;;;3.90;;
7375;SDS011;3728;42.266;24.944;2022-10-15T00:23:51;5.77;;;4.07;;
7375;SDS011;3728;42.266;24.944;2022-10-15T00:26:20;5.97;;;4.00;;
7375;SDS011;3728;42.266;24.944;2022-10-15T00:28:51;6.83;;;4.10;;
7375;SDS011;3728;42.266;24.944;2022-10-15T00:31:21;7.93;;;3.90;;
7375;SDS011;3728;42.266;24.944;2022-10-15T00:33:52;6.07;;;3.97;;
7375;SDS011;3728;42.266;24.944;2022-10-15T00:36:27;6.27;;;4.00;;
7375;SDS011;3728;42.266;24.944;2022-10-15T00:39:02;7.63;;;4.00;;
7375;SDS011;3728;42.266;24.944;2022-10-15T00:41:33;7.37;;;3.97;;
7375;SDS011;3728;42.266;24.944;2022-10-15T00:46:51;9.30;;;4.20;;
7375;SDS011;3728;42.266;24.944;2022-10-15T00:49:46;6.50;;;4.10;;
7375;SDS011;3728;42.266;24.944;2022-10-15T00:52:22;6.27;;;4.00;;
7375;SDS011;3728;42.266;24.944;2022-10-15T00:55:00;6.37;;;4.00;;
7375;SDS011;3728;42.266;24.944;2022-10-15T00:57:33;7.27;;;4.50;;
7375;SDS011;3728;42.266;24.944;2022-10-15T01:00:05;8.97;;;3.90;;
7375;SDS011;3728;42.266;24.944;2022-10-15T01:02:38;5.10;;;3.63;;
7375;SDS011;3728;42.266;24.944;2022-10-15T01:05:06;4.93;;;3.67;;
7375;SDS011;3728;42.266;24.944;2022-10-15T01:07:36;5.67;;;3.83;;
7375;SDS011;3728;42.266;24.944;2022-10-15T01:10:08;10.00;;;4.37;;
7375;SDS011;3728;42.266;24.944;2022-10-15T01:18:17;4.37;;;3.97;;
7375;SDS011;3728;42.266;24.944;2022-10-15T01:21:20;8.00;;;4.20;;
7375;SDS011;3728;42.266;24.944;2022-10-15T01:27:37;7.70;;;4.40;;
7375;SDS011;3728;42.266;24.944;2022-10-15T01:30:37;7.27;;;3.73;;
7375;SDS011;3728;42.266;24.944;2022-10-15T01:33:24;6.97;;;3.60;;
7375;SDS011;3728;42.266;24.944;2022-10-15T01:37:01;7.37;;;3.70;;
7375;SDS011;3728;42.266;24.944;2022-10-15T01:39:40;6.13;;;3.97;;
7375;SDS011;3728;42.266;24.944;2022-10-15T01:42:27;5.47;;;3.60;;
7375;SDS011;3728;42.266;24.944;2022-10-15T01:45:05;4.67;;;3.70;;
7375;SDS011;3728;42.266;24.944;2022-10-15T01:48:10;11.27;;;4.13;;
7375;SDS011;3728;42.266;24.944;2022-10-15T01:50:41;4.83;;;3.57;;
7375;SDS011;3728;42.266;24.944;2022-10-15T01:53:14;6.87;;;3.60;;
7375;SDS011;3728;42.266;24.944;2022-10-15T01:55:53;5.30;;;3.40;;
7375;SDS011;3728;42.266;24.944;2022-10-15T01:58:25;8.97;;;4.27;;
7375;SDS011;3728;42.266;24.944;2022-10-15T02:00:56;5.97;;;3.90;;
7375;SDS011;3728;42.266;24.944;2022-10-15T02:03:25;6.73;;;3.63;;
7375;SDS011;3728;42.266;24.944;2022-10-15T02:05:58;8.07;;;3.70;;
7375;SDS011;3728;42.266;24.944;2022-10-15T02:11:22;7.07;;;3.57;;
7375;SDS011;3728;42.266;24.944;2022-10-15T02:13:59;4.80;;;3.60;;
7375;SDS011;3728;42.266;24.944;2022-10-15T02:19:40;5.97;;;3.73;;
7375;SDS011;3728;42.266;24.944;2022-10-15T02:24:51;7.40;;;3.77;;
7375;SDS011;3728;42.266;24.944;2022-10-15T02:27:24;6.27;;;3.47;;
7375;SDS011;3728;42.266;24.944;2022-10-15T02:29:54;7.40;;;3.70;;
7375;SDS011;3728;42.266;24.944;2022-10-15T02:32:24;6.90;;;3.57;;
7375;SDS011;3728;42.266;24.944;2022-10-15T02:34:54;4.30;;;3.40;;
7375;SDS011;3728;42.266;24.944;2022-10-15T02:37:23;6.97;;;3.70;;
7375;SDS011;3728;42.266;24.944;2022-10-15T02:39:52;7.07;;;3.50;;
7375;SDS011;3728;42.266;24.944;2022-10-15T02:42:21;5.53;;;3.30;;
7375;SDS011;3728;42.266;24.944;2022-10-15T02:44:50;6.03;;;3.50;;
7375;SDS011;3728;42.266;24.944;2022-10-15T02:47:18;6.03;;;3.93;;
7375;SDS011;3728;42.266;24.944;2022-10-15T02:49:46;5.97;;;3.40;;
7375;SDS011;3728;42.266;24.944;2022-10-15T02:52:13;5.73;;;3.53;;
7375;SDS011;3728;42.266;24.944;2022-10-15T02:54:41;6.33;;;4.07;;
7375;SDS011;3728;42.266;24.944;2022-10-15T02:57:09;7.97;;;4.00;;
7375;SDS011;3728;42.266;24.944;2022-10-15T02:59:38;5.93;;;4.00;;
7375;SDS011;3728;42.266;24.944;2022-10-15T03:02:07;5.43;;;3.37;;
7375;SDS011;3728;42.266;24.944;2022-10-15T03:04:39;5.13;;;3.97;;
7375;SDS011;3728;42.266;24.944;2022-10-15T03:07:07;5.83;;;3.63;;
7375;SDS011;3728;42.266;24.944;2022-10-15T03:09:34;5.63;;;3.63;;
7375;SDS011;3728;42.266;24.944;2022-10-15T03:12:03;5.30;;;3.83;;
7375;SDS011;3728;42.266;24.944;2022-10-15T03:14:32;6.13;;;3.27;;
7375;SDS011;3728;42.266;24.944;2022-10-15T03:17:00;6.33;;;4.43;;
7375;SDS011;3728;42.266;24.944;2022-10-15T03:19:28;6.33;;;3.93;;
7375;SDS011;3728;42.266;24.944;2022-10-15T03:21:56;4.97;;;4.10;;
7375;SDS011;3728;42.266;24.944;2022-10-15T03:24:28;5.77;;;3.70;;
7375;SDS011;3728;42.266;24.944;2022-10-15T03:26:56;8.67;;;3.90;;
7375;SDS011;3728;42.266;24.944;2022-10-15T03:29:24;6.37;;;3.57;;
7375;SDS011;3728;42.266;24.944;2022-10-15T03:31:58;6.17;;;4.00;;
7375;SDS011;3728;42.266;24.944;2022-10-15T03:34:25;6.30;;;3.90;;
7375;SDS011;3728;42.266;24.944;2022-10-15T03:36:53;6.57;;;3.73;;
7375;SDS011;3728;42.266;24.944;2022-10-15T03:39:21;5.77;;;3.30;;
7375;SDS011;3728;42.266;24.944;2022-10-15T03:41:53;5.70;;;3.70;;
7375;SDS011;3728;42.266;24.944;2022-10-15T03:44:28;5.13;;;3.80;;
7375;SDS011;3728;42.266;24.944;2022-10-15T03:47:05;5.20;;;3.93;;
7375;SDS011;3728;42.266;24.944;2022-10-15T03:49:45;6.00;;;3.97;;
7375;SDS011;3728;42.266;24.944;2022-10-15T03:52:13;11.73;;;3.80;;
7375;SDS011;3728;42.266;24.944;2022-10-15T03:54:41;8.00;;;3.83;;
7375;SDS011;3728;42.266;24.944;2022-10-15T03:57:13;4.57;;;3.53;;
7375;SDS011;3728;42.266;24.944;2022-10-15T03:59:45;6.93;;;3.57;;
7375;SDS011;3728;42.266;24.944;2022-10-15T04:02:14;4.97;;;3.90;;
7375;SDS011;3728;42.266;24.944;2022-10-15T04:04:43;5.10;;;3.40;;
7375;SDS011;3728;42.266;24.944;2022-10-15T04:07:11;6.93;;;3.90;;
7375;SDS011;3728;42.266;24.944;2022-10-15T04:09:38;5.60;;;3.80;;
7375;SDS011;3728;42.266;24.944;2022-10-15T04:12:21;11.63;;;4.10;;
7375;SDS011;3728;42.266;24.944;2022-10-15T04:14:50;7.60;;;3.63;;
7375;SDS011;3728;42.266;24.944;2022-10-15T04:17:18;7.33;;;4.37;;
7375;SDS011;3728;42.266;24.944;2022-10-15T04:19:46;6.23;;;4.43;;
7375;SDS011;3728;42.266;24.944;2022-10-15T04:22:14;6.80;;;3.97;;
7375;SDS011;3728;42.266;24.944;2022-10-15T04:24:49;5.30;;;3.90;;
7375;SDS011;3728;42.266;24.944;2022-10-15T04:27:27;6.37;;;4.63;;
7375;SDS011;3728;42.266;24.944;2022-10-15T04:30:10;7.90;;;4.87;;
7375;SDS011;3728;42.266;24.944;2022-10-15T04:32:50;14.67;;;8.90;;
7375;SDS011;3728;42.266;24.944;2022-10-15T04:35:19;38.57;;;23.73;;
7375;SDS011;3728;42.266;24.944;2022-10-15T04:38:19;65.40;;;38.03;;
7375;SDS011;3728;42.266;24.944;2022-10-15T04:41:02;24.20;;;14.67;;
7375;SDS011;3728;42.266;24.944;2022-10-15T04:43:47;14.40;;;7.97;;
7375;SDS011;3728;42.266;24.944;2022-10-15T04:46:14;9.73;;;5.27;;
7375;SDS011;3728;42.266;24.944;2022-10-15T04:48:43;6.93;;;4.87;;
7375;SDS011;3728;42.266;24.944;2022-10-15T04:51:13;7.63;;;4.70;;
7375;SDS011;3728;42.266;24.944;2022-10-15T04:54:02;11.33;;;4.77;;
7375;SDS011;3728;42.266;24.944;2022-10-15T04:56:31;8.27;;;4.20;;
7375;SDS011;3728;42.266;24.944;2022-10-15T04:59:04;7.53;;;4.80;;
7375;SDS011;3728;42.266;24.944;2022-10-15T05:01:53;9.20;;;4.67;;
7375;SDS011;3728;42.266;24.944;2022-10-15T05:04:21;11.17;;;4.70;;
7375;SDS011;3728;42.266;24.944;2022-10-15T05:06:49;5.93;;;4.70;;
7375;SDS011;3728;42.266;24.944;2022-10-15T05:09:18;8.80;;;4.80;;
7375;SDS011;3728;42.266;24.944;2022-10-15T05:11:48;8.27;;;4.60;;
7375;SDS011;3728;42.266;24.944;2022-10-15T05:14:16;5.57;;;4.20;;
7375;SDS011;3728;42.266;24.944;2022-10-15T05:17:00;6.90;;;4.23;;
7375;SDS011;3728;42.266;24.944;2022-10-15T05:19:48;7.27;;;4.33;;
7375;SDS011;3728;42.266;24.944;2022-10-15T05:22:20;5.67;;;4.30;;
7375;SDS011;3728;42.266;24.944;2022-10-15T05:24:52;8.23;;;4.83;;
7375;SDS011;3728;42.266;24.944;2022-10-15T05:27:25;8.73;;;4.53;;
7375;SDS011;3728;42.266;24.944;2022-10-15T05:29:53;7.27;;;4.80;;
7375;SDS011;3728;42.266;24.944;2022-10-15T05:32:25;6.90;;;4.57;;
7375;SDS011;3728;42.266;24.944;2022-10-15T05:34:53;6.63;;;4.77;;
7375;SDS011;3728;42.266;24.944;2022-10-15T05:37:20;6.97;;;4.90;;
7375;SDS011;3728;42.266;24.944;2022-10-15T05:39:50;12.63;;;4.97;;
7375;SDS011;3728;42.266;24.944;2022-10-15T05:42:18;6.13;;;4.80;;
7375;SDS011;3728;42.266;24.944;2022-10-15T05:44:54;8.40;;;4.47;;
7375;SDS011;3728;42.266;24.944;2022-10-15T05:47:22;5.77;;;4.27;;
7375;SDS011;3728;42.266;24.944;2022-10-15T05:50:10;6.30;;;4.70;;
7375;SDS011;3728;42.266;24.944;2022-10-15T05:52:44;7.53;;;5.00;;
7375;SDS011;3728;42.266;24.944;2022-10-15T05:55:32;8.17;;;4.70;;
7375;SDS011;3728;42.266;24.944;2022-10-15T05:58:00;5.93;;;4.40;;
7375;SDS011;3728;42.266;24.944;2022-10-15T06:00:30;8.97;;;4.60;;
7375;SDS011;3728;42.266;24.944;2022-10-15T06:03:00;10.43;;;4.97;;
7375;SDS011;3728;42.266;24.944;2022-10-15T06:05:28;6.70;;;5.13;;
7375;SDS011;3728;42.266;24.944;2022-10-15T06:07:56;9.03;;;4.67;;
7375;SDS011;3728;42.266;24.944;2022-10-15T06:10:23;7.43;;;4.47;;
7375;SDS011;3728;42.266;24.944;2022-10-15T06:12:51;9.90;;;5.97;;
7375;SDS011;3728;42.266;24.944;2022-10-15T06:15:18;6.67;;;5.27;;
7375;SDS011;3728;42.266;24.944;2022-10-15T06:17:46;6.40;;;5.40;;
7375;SDS011;3728;42.266;24.944;2022-10-15T06:20:17;7.43;;;5.57;;
7375;SDS011;3728;42.266;24.944;2022-10-15T06:22:44;10.07;;;4.83;;
7375;SDS011;3728;42.266;24.944;2022-10-15T06:25:12;13.37;;;5.27;;
7375;SDS011;3728;42.266;24.944;2022-10-15T06:27:40;7.00;;;5.17;;
7375;SDS011;3728;42.266;24.944;2022-10-15T06:30:08;7.57;;;5.53;;
7375;SDS011;3728;42.266;24.944;2022-10-15T06:32:36;6.20;;;5.60;;
7375;SDS011;3728;42.266;24.944;2022-10-15T06:35:04;11.67;;;5.73;;
7375;SDS011;3728;42.266;24.944;2022-10-15T06:37:33;7.63;;;5.50;;
7375;SDS011;3728;42.266;24.944;2022-10-15T06:40:00;11.50;;;5.47;;
7375;SDS011;3728;42.266;24.944;2022-10-15T06:42:28;8.90;;;5.67;;
7375;SDS011;3728;42.266;24.944;2022-10-15T06:44:55;5.70;;;5.10;;
7375;SDS011;3728;42.266;24.944;2022-10-15T06:47:23;7.23;;;5.27;;
7375;SDS011;3728;42.266;24.944;2022-10-15T06:49:51;7.23;;;5.50;;
7375;SDS011;3728;42.266;24.944;2022-10-15T06:52:19;7.47;;;5.50;;
7375;SDS011;3728;42.266;24.944;2022-10-15T06:54:46;9.00;;;5.00;;
7375;SDS011;3728;42.266;24.944;2022-10-15T06:57:19;11.00;;;5.23;;
7375;SDS011;3728;42.266;24.944;2022-10-15T06:59:47;7.50;;;5.43;;
7375;SDS011;3728;42.266;24.944;2022-10-15T07:02:15;8.73;;;5.40;;
7375;SDS011;3728;42.266;24.944;2022-10-15T07:04:45;6.57;;;4.70;;
7375;SDS011;3728;42.266;24.944;2022-10-15T07:07:16;6.93;;;4.90;;
7375;SDS011;3728;42.266;24.944;2022-10-15T07:09:44;6.53;;;4.80;;
7375;SDS011;3728;42.266;24.944;2022-10-15T07:12:12;9.90;;;4.57;;
7375;SDS011;3728;42.266;24.944;2022-10-15T07:14:42;6.17;;;4.47;;
7375;SDS011;3728;42.266;24.944;2022-10-15T07:17:10;6.63;;;4.47;;
7375;SDS011;3728;42.266;24.944;2022-10-15T07:19:37;7.33;;;4.50;;
7375;SDS011;3728;42.266;24.944;2022-10-15T07:22:05;6.67;;;4.47;;
7375;SDS011;3728;42.266;24.944;2022-10-15T07:24:33;6.53;;;3.67;;
7375;SDS011;3728;42.266;24.944;2022-10-15T07:27:01;9.67;;;4.53;;
7375;SDS011;3728;42.266;24.944;2022-10-15T07:29:43;6.53;;;4.00;;
7375;SDS011;3728;42.266;24.944;2022-10-15T07:32:11;7.93;;;4.33;;
7375;SDS011;3728;42.266;24.944;2022-10-15T07:34:39;6.87;;;4.13;;
7375;SDS011;3728;42.266;24.944;2022-10-15T07:37:06;7.50;;;4.00;;
7375;SDS011;3728;42.266;24.944;2022-10-15T07:39:34;7.70;;;4.20;;
7375;SDS011;3728;42.266;24.944;2022-10-15T07:42:06;6.90;;;4.10;;
7375;SDS011;3728;42.266;24.944;2022-10-15T07:44:34;6.03;;;4.10;;
7375;SDS011;3728;42.266;24.944;2022-10-15T07:47:05;7.73;;;4.40;;
7375;SDS011;3728;42.266;24.944;2022-10-15T07:49:36;6.17;;;3.83;;
7375;SDS011;3728;42.266;24.944;2022-10-15T07:52:03;6.67;;;3.30;;
7375;SDS011;3728;42.266;24.944;2022-10-15T07:54:35;6.37;;;3.30;;
7375;SDS011;3728;42.266;24.944;2022-10-15T07:57:03;7.50;;;3.37;;
7375;SDS011;3728;42.266;24.944;2022-10-15T07:59:32;6.80;;;3.57;;
7375;SDS011;3728;42.266;24.944;2022-10-15T08:02:00;5.17;;;3.00;;
7375;SDS011;3728;42.266;24.944;2022-10-15T08:04:28;5.73;;;3.27;;
7375;SDS011;3728;42.266;24.944;2022-10-15T08:06:56;4.63;;;3.33;;
7375;SDS011;3728;42.266;24.944;2022-10-15T08:09:23;5.60;;;3.00;;
7375;SDS011;3728;42.266;24.944;2022-10-15T08:11:51;5.07;;;2.90;;
7375;SDS011;3728;42.266;24.944;2022-10-15T08:14:18;4.53;;;2.53;;
7375;SDS011;3728;42.266;24.944;2022-10-15T08:16:46;8.27;;;2.90;;
7375;SDS011;3728;42.266;24.944;2022-10-15T08:19:13;5.13;;;3.13;;
7375;SDS011;3728;42.266;24.944;2022-10-15T08:21:44;3.47;;;2.93;;
7375;SDS011;3728;42.266;24.944;2022-10-15T08:24:13;5.57;;;3.40;;
7375;SDS011;3728;42.266;24.944;2022-10-15T08:26:40;5.07;;;3.27;;
7375;SDS011;3728;42.266;24.944;2022-10-15T08:29:09;5.13;;;3.13;;
7375;SDS011;3728;42.266;24.944;2022-10-15T08:31:40;3.20;;;2.80;;
7375;SDS011;3728;42.266;24.944;2022-10-15T08:34:08;6.03;;;2.83;;
7375;SDS011;3728;42.266;24.944;2022-10-15T08:36:36;5.77;;;2.87;;
7375;SDS011;3728;42.266;24.944;2022-10-15T08:39:03;13.13;;;2.70;;
7375;SDS011;3728;42.266;24.944;2022-10-15T08:41:35;3.00;;;2.70;;
7375;SDS011;3728;42.266;24.944;2022-10-15T08:47:01;5.17;;;2.80;;
7375;SDS011;3728;42.266;24.944;2022-10-15T08:49:48;6.80;;;2.63;;
7375;SDS011;3728;42.266;24.944;2022-10-15T08:52:37;3.60;;;2.53;;
7375;SDS011;3728;42.266;24.944;2022-10-15T08:55:14;4.53;;;2.87;;
7375;SDS011;3728;42.266;24.944;2022-10-15T08:57:56;3.27;;;2.70;;
7375;SDS011;3728;42.266;24.944;2022-10-15T09:00:30;7.47;;;2.60;;
7375;SDS011;3728;42.266;24.944;2022-10-15T09:06:01;9.83;;;3.00;;
7375;SDS011;3728;42.266;24.944;2022-10-15T09:14:53;3.63;;;2.60;;
7375;SDS011;3728;42.266;24.944;2022-10-15T09:17:26;5.13;;;2.50;;
7375;SDS011;3728;42.266;24.944;2022-10-15T09:19:58;6.10;;;2.83;;
7375;SDS011;3728;42.266;24.944;2022-10-15T09:22:32;4.30;;;2.37;;
7375;SDS011;3728;42.266;24.944;2022-10-15T09:25:06;5.93;;;2.33;;
7375;SDS011;3728;42.266;24.944;2022-10-15T09:27:46;5.07;;;2.57;;
7375;SDS011;3728;42.266;24.944;2022-10-15T09:30:22;8.10;;;3.27;;
7375;SDS011;3728;42.266;24.944;2022-10-15T09:39:34;6.10;;;2.47;;
7375;SDS011;3728;42.266;24.944;2022-10-15T09:44:59;4.20;;;2.10;;
7375;SDS011;3728;42.266;24.944;2022-10-15T09:47:35;2.80;;;1.97;;
7375;SDS011;3728;42.266;24.944;2022-10-15T09:50:07;2.63;;;1.90;;
7375;SDS011;3728;42.266;24.944;2022-10-15T09:55:52;3.60;;;2.13;;
7375;SDS011;3728;42.266;24.944;2022-10-15T09:58:39;3.33;;;2.10;;
7375;SDS011;3728;42.266;24.944;2022-10-15T10:01:19;12.00;;;2.00;;
7375;SDS011;3728;42.266;24.944;2022-10-15T10:06:43;3.47;;;2.40;;
7375;SDS011;3728;42.266;24.944;2022-10-15T10:09:38;2.95;;;2.10;;
7375;SDS011;3728;42.266;24.944;2022-10-15T10:12:19;4.00;;;2.00;;
7375;SDS011;3728;42.266;24.944;2022-10-15T10:15:24;2.20;;;1.97;;
7375;SDS011;3728;42.266;24.944;2022-10-15T10:18:04;1.73;;;1.60;;
7375;SDS011;3728;42.266;24.944;2022-10-15T10:20:35;7.50;;;2.23;;
7375;SDS011;3728;42.266;24.944;2022-10-15T10:23:21;2.58;;;1.85;;
7375;SDS011;3728;42.266;24.944;2022-10-15T10:25:56;4.23;;;1.80;;
7375;SDS011;3728;42.266;24.944;2022-10-15T10:28:33;6.67;;;2.03;;
7375;SDS011;3728;42.266;24.944;2022-10-15T10:31:10;2.80;;;2.20;;
7375;SDS011;3728;42.266;24.944;2022-10-15T10:36:28;2.15;;;1.50;;
7375;SDS011;3728;42.266;24.944;2022-10-15T10:39:04;3.72;;;1.88;;
7375;SDS011;3728;42.266;24.944;2022-10-15T10:42:06;1.73;;;1.63;;
7375;SDS011;3728;42.266;24.944;2022-10-15T10:44:51;1.90;;;1.70;;
7375;SDS011;3728;42.266;24.944;2022-10-15T10:47:22;2.13;;;1.77;;
7375;SDS011;3728;42.266;24.944;2022-10-15T10:49:56;4.80;;;1.90;;
7375;SDS011;3728;42.266;24.944;2022-10-15T10:52:29;4.10;;;1.90;;
7375;SDS011;3728;42.266;24.944;2022-10-15T10:57:56;29.33;;;3.55;;
7375;SDS011;3728;42.266;24.944;2022-10-15T11:14:54;7.47;;;2.30;;
7375;SDS011;3728;42.266;24.944;2022-10-15T11:20:58;2.83;;;1.70;;
7375;SDS011;3728;42.266;24.944;2022-10-15T11:29:56;3.45;;;1.88;;
7375;SDS011;3728;42.266;24.944;2022-10-15T11:35:49;2.83;;;1.90;;
7375;SDS011;3728;42.266;24.944;2022-10-15T11:39:10;4.28;;;1.95;;
7375;SDS011;3728;42.266;24.944;2022-10-15T11:42:07;3.95;;;1.60;;
7375;SDS011;3728;42.266;24.944;2022-10-15T11:47:53;2.83;;;1.73;;
7375;SDS011;3728;42.266;24.944;2022-10-15T11:53:41;2.85;;;1.80;;
7375;SDS011;3728;42.266;24.944;2022-10-15T11:56:35;2.08;;;1.70;;
7375;SDS011;3728;42.266;24.944;2022-10-15T11:59:17;3.35;;;2.10;;
7375;SDS011;3728;42.266;24.944;2022-10-15T12:04:37;2.33;;;1.95;;
7375;SDS011;3728;42.266;24.944;2022-10-15T12:07:12;3.00;;;1.33;;
7375;SDS011;3728;42.266;24.944;2022-10-15T12:09:55;4.50;;;2.03;;
7375;SDS011;3728;42.266;24.944;2022-10-15T12:12:41;14.43;;;2.85;;
7375;SDS011;3728;42.266;24.944;2022-10-15T12:15:23;8.65;;;2.08;;
7375;SDS011;3728;42.266;24.944;2022-10-15T12:20:39;6.60;;;1.90;;
7375;SDS011;3728;42.266;24.944;2022-10-15T12:28:59;2.22;;;1.55;;
7375;SDS011;3728;42.266;24.944;2022-10-15T12:31:44;5.22;;;2.25;;
7375;SDS011;3728;42.266;24.944;2022-10-15T12:37:21;6.47;;;2.00;;
7375;SDS011;3728;42.266;24.944;2022-10-15T12:39:56;2.65;;;1.80;;
7375;SDS011;3728;42.266;24.944;2022-10-15T12:42:31;4.53;;;1.98;;
7375;SDS011;3728;42.266;24.944;2022-10-15T12:45:04;3.97;;;1.80;;
7375;SDS011;3728;42.266;24.944;2022-10-15T12:50:44;9.38;;;1.90;;
7375;SDS011;3728;42.266;24.944;2022-10-15T12:58:50;4.28;;;1.77;;
7375;SDS011;3728;42.266;24.944;2022-10-15T13:11:49;6.07;;;2.20;;
7375;SDS011;3728;42.266;24.944;2022-10-15T13:14:33;55.70;;;6.18;;
7375;SDS011;3728;42.266;24.944;2022-10-15T13:17:17;10.23;;;2.50;;
7375;SDS011;3728;42.266;24.944;2022-10-15T13:19:50;4.63;;;1.80;;
7375;SDS011;3728;42.266;24.944;2022-10-15T13:22:27;2.08;;;1.63;;
7375;SDS011;3728;42.266;24.944;2022-10-15T13:25:00;2.30;;;1.73;;
7375;SDS011;3728;42.266;24.944;2022-10-15T13:27:30;4.72;;;1.73;;
7375;SDS011;3728;42.266;24.944;2022-10-15T13:30:12;2.53;;;1.77;;
7375;SDS011;3728;42.266;24.944;2022-10-15T13:32:43;5.32;;;2.10;;
7375;SDS011;3728;42.266;24.944;2022-10-15T13:35:25;1.60;;;1.50;;
7375;SDS011;3728;42.266;24.944;2022-10-15T13:37:56;2.50;;;1.70;;
7375;SDS011;3728;42.266;24.944;2022-10-15T13:40:26;1.85;;;1.75;;
7375;SDS011;3728;42.266;24.944;2022-10-15T13:45:32;3.80;;;1.58;;
7375;SDS011;3728;42.266;24.944;2022-10-15T13:48:00;2.45;;;1.52;;
7375;SDS011;3728;42.266;24.944;2022-10-15T13:50:29;2.85;;;1.70;;
7375;SDS011;3728;42.266;24.944;2022-10-15T13:56:04;4.65;;;1.95;;
7375;SDS011;3728;42.266;24.944;2022-10-15T13:58:53;4.72;;;2.13;;
7375;SDS011;3728;42.266;24.944;2022-10-15T14:01:22;3.65;;;1.63;;
7375;SDS011;3728;42.266;24.944;2022-10-15T14:03:56;5.07;;;2.00;;
7375;SDS011;3728;42.266;24.944;2022-10-15T14:06:29;3.28;;;1.80;;
7375;SDS011;3728;42.266;24.944;2022-10-15T14:09:13;9.13;;;2.05;;
7375;SDS011;3728;42.266;24.944;2022-10-15T14:12:04;5.57;;;1.90;;
7375;SDS011;3728;42.266;24.944;2022-10-15T14:14:37;4.00;;;1.90;;
7375;SDS011;3728;42.266;24.944;2022-10-15T14:17:11;4.90;;;1.90;;
7375;SDS011;3728;42.266;24.944;2022-10-15T14:22:42;2.97;;;1.60;;
7375;SDS011;3728;42.266;24.944;2022-10-15T14:25:15;5.03;;;1.95;;
7375;SDS011;3728;42.266;24.944;2022-10-15T14:27:49;4.93;;;2.03;;
7375;SDS011;3728;42.266;24.944;2022-10-15T14:38:48;4.05;;;1.75;;
7375;SDS011;3728;42.266;24.944;2022-10-15T14:41:20;5.82;;;1.85;;
7375;SDS011;3728;42.266;24.944;2022-10-15T14:44:02;8.32;;;3.28;;
7375;SDS011;3728;42.266;24.944;2022-10-15T14:46:44;7.60;;;2.70;;
7375;SDS011;3728;42.266;24.944;2022-10-15T14:52:10;9.07;;;3.10;;
7375;SDS011;3728;42.266;24.944;2022-10-15T14:57:59;14.13;;;2.63;;
7375;SDS011;3728;42.266;24.944;2022-10-15T15:00:43;30.50;;;4.13;;
7375;SDS011;3728;42.266;24.944;2022-10-15T15:03:17;42.97;;;5.53;;
7375;SDS011;3728;42.266;24.944;2022-10-15T15:05:54;21.13;;;4.53;;
7375;SDS011;3728;42.266;24.944;2022-10-15T15:08:23;14.07;;;5.00;;
7375;SDS011;3728;42.266;24.944;2022-10-15T15:10:55;30.07;;;4.80;;
7375;SDS011;3728;42.266;24.944;2022-10-15T15:13:50;39.00;;;5.57;;
7375;SDS011;3728;42.266;24.944;2022-10-15T15:16:20;15.77;;;3.83;;
7375;SDS011;3728;42.266;24.944;2022-10-15T15:18:48;7.70;;;2.43;;
7375;SDS011;3728;42.266;24.944;2022-10-15T15:21:18;2.70;;;1.67;;
7375;SDS011;3728;42.266;24.944;2022-10-15T15:23:49;6.57;;;2.20;;
7375;SDS011;3728;42.266;24.944;2022-10-15T15:26:17;2.60;;;1.60;;
7375;SDS011;3728;42.266;24.944;2022-10-15T15:28:45;1.80;;;1.40;;
7375;SDS011;3728;42.266;24.944;2022-10-15T15:31:15;4.63;;;1.60;;
7375;SDS011;3728;42.266;24.944;2022-10-15T15:33:44;2.50;;;1.33;;
7375;SDS011;3728;42.266;24.944;2022-10-15T15:36:13;2.07;;;1.53;;
7375;SDS011;3728;42.266;24.944;2022-10-15T15:38:49;2.90;;;1.40;;
7375;SDS011;3728;42.266;24.944;2022-10-15T15:41:19;2.50;;;1.70;;
7375;SDS011;3728;42.266;24.944;2022-10-15T15:43:49;3.23;;;1.53;;
7375;SDS011;3728;42.266;24.944;2022-10-15T15:46:18;2.77;;;1.60;;
7375;SDS011;3728;42.266;24.944;2022-10-15T15:48:45;6.50;;;1.63;;
7375;SDS011;3728;42.266;24.944;2022-10-15T15:51:16;4.87;;;1.67;;
7375;SDS011;3728;42.266;24.944;2022-10-15T15:53:52;5.70;;;1.63;;
7375;SDS011;3728;42.266;24.944;2022-10-15T15:56:20;3.40;;;1.77;;
7375;SDS011;3728;42.266;24.944;2022-10-15T15:58:48;3.07;;;1.80;;
7375;SDS011;3728;42.266;24.944;2022-10-15T16:01:17;2.00;;;1.60;;
7375;SDS011;3728;42.266;24.944;2022-10-15T16:03:46;5.70;;;1.77;;
7375;SDS011;3728;42.266;24.944;2022-10-15T16:06:14;3.67;;;1.70;;
7375;SDS011;3728;42.266;24.944;2022-10-15T16:08:41;4.40;;;2.40;;
7375;SDS011;3728;42.266;24.944;2022-10-15T16:11:11;6.40;;;2.17;;
7375;SDS011;3728;42.266;24.944;2022-10-15T16:13:39;6.73;;;3.07;;
7375;SDS011;3728;42.266;24.944;2022-10-15T16:16:09;2.80;;;2.40;;
7375;SDS011;3728;42.266;24.944;2022-10-15T16:18:36;5.43;;;2.40;;
7375;SDS011;3728;42.266;24.944;2022-10-15T16:21:04;2.77;;;2.30;;
7375;SDS011;3728;42.266;24.944;2022-10-15T16:23:34;5.73;;;3.37;;
7375;SDS011;3728;42.266;24.944;2022-10-15T16:26:01;6.07;;;3.10;;
7375;SDS011;3728;42.266;24.944;2022-10-15T16:28:29;4.10;;;2.87;;
7375;SDS011;3728;42.266;24.944;2022-10-15T16:31:24;4.37;;;3.20;;
7375;SDS011;3728;42.266;24.944;2022-10-15T16:33:55;10.07;;;8.80;;
7375;SDS011;3728;42.266;24.944;2022-10-15T16:36:25;8.00;;;6.13;;
7375;SDS011;3728;42.266;24.944;2022-10-15T16:38:52;3.53;;;3.23;;
7375;SDS011;3728;42.266;24.944;2022-10-15T16:41:21;5.07;;;3.60;;
7375;SDS011;3728;42.266;24.944;2022-10-15T16:43:49;5.90;;;5.40;;
7375;SDS011;3728;42.266;24.944;2022-10-15T16:46:18;5.63;;;3.60;;
7375;SDS011;3728;42.266;24.944;2022-10-15T16:48:53;4.80;;;4.30;;
7375;SDS011;3728;42.266;24.944;2022-10-15T16:51:22;8.30;;;3.80;;
7375;SDS011;3728;42.266;24.944;2022-10-15T16:53:51;7.77;;;4.90;;
7375;SDS011;3728;42.266;24.944;2022-10-15T16:56:23;5.87;;;5.30;;
7375;SDS011;3728;42.266;24.944;2022-10-15T16:58:56;6.77;;;5.17;;
7375;SDS011;3728;42.266;24.944;2022-10-15T17:01:27;4.97;;;3.97;;
7375;SDS011;3728;42.266;24.944;2022-10-15T17:03:57;6.20;;;4.23;;
7375;SDS011;3728;42.266;24.944;2022-10-15T17:06:26;6.97;;;4.67;;
7375;SDS011;3728;42.266;24.944;2022-10-15T17:08:57;6.37;;;3.33;;
7375;SDS011;3728;42.266;24.944;2022-10-15T17:11:32;7.67;;;4.97;;
7375;SDS011;3728;42.266;24.944;2022-10-15T17:14:16;5.33;;;4.20;;
7375;SDS011;3728;42.266;24.944;2022-10-15T17:16:45;6.13;;;3.77;;
7375;SDS011;3728;42.266;24.944;2022-10-15T17:19:21;5.77;;;3.83;;
7375;SDS011;3728;42.266;24.944;2022-10-15T17:21:57;6.87;;;3.60;;
7375;SDS011;3728;42.266;24.944;2022-10-15T17:24:27;7.50;;;3.53;;
7375;SDS011;3728;42.266;24.944;2022-10-15T17:26:55;7.13;;;2.63;;
7375;SDS011;3728;42.266;24.944;2022-10-15T17:29:25;4.67;;;2.77;;
7375;SDS011;3728;42.266;24.944;2022-10-15T17:31:59;6.10;;;2.70;;
7375;SDS011;3728;42.266;24.944;2022-10-15T17:34:28;3.90;;;2.80;;
7375;SDS011;3728;42.266;24.944;2022-10-15T17:36:59;6.63;;;2.90;;
7375;SDS011;3728;42.266;24.944;2022-10-15T17:39:50;3.90;;;2.70;;
7375;SDS011;3728;42.266;24.944;2022-10-15T17:42:19;4.77;;;2.70;;
7375;SDS011;3728;42.266;24.944;2022-10-15T17:44:49;4.53;;;2.20;;
7375;SDS011;3728;42.266;24.944;2022-10-15T17:47:18;3.17;;;2.50;;
7375;SDS011;3728;42.266;24.944;2022-10-15T17:49:49;4.73;;;2.33;;
7375;SDS011;3728;42.266;24.944;2022-10-15T17:52:18;5.03;;;2.97;;
7375;SDS011;3728;42.266;24.944;2022-10-15T17:54:46;3.73;;;2.80;;
7375;SDS011;3728;42.266;24.944;2022-10-15T17:57:13;3.50;;;2.17;;
7375;SDS011;3728;42.266;24.944;2022-10-15T17:59:43;4.13;;;3.03;;
7375;SDS011;3728;42.266;24.944;2022-10-15T18:02:16;4.50;;;2.13;;